Time;durP1;ratioP1;P1;durP2;ratioP2;P2;SDS_P1;SDS_P2;PMS_P1;PMS_P2;Temp;Humidity;BMP_temperature;BMP_pressure;BME280_temperature;BME280_humidity;BME280_pressure;Samples;Min_cycle;Max_cycle;Signal;HPM_P1;HPM_P2
2021/04/06 00:00:15;;;;;;;5.65;3.10;;;-2.90;99.90;;;;;;2064117;28;20563;-65
2021/04/06 00:01:17;;;;;;;5.72;3.20;;;-2.90;99.90;;;;;;2063385;28;20564;-65
2021/04/06 00:02:20;;;;;;;7.88;3.95;;;-2.90;99.90;;;;;;2072192;28;20202;-63
2021/04/06 00:03:26;;;;;;;6.75;3.70;;;-3.00;99.90;;;;;;2079449;28;20180;-65
2021/04/06 00:04:33;;;;;;;9.88;4.63;;;-3.00;99.90;;;;;;2064736;28;20626;-65
2021/04/06 00:05:36;;;;;;;10.65;3.28;;;-3.10;99.90;;;;;;2064393;28;20166;-65
2021/04/06 00:06:40;;;;;;;6.90;3.25;;;-3.10;99.90;;;;;;2063934;28;20241;-64
2021/04/06 00:07:43;;;;;;;7.43;3.38;;;-3.10;99.90;;;;;;2056279;28;20183;-65
2021/04/06 00:08:45;;;;;;;6.60;3.42;;;-3.10;99.90;;;;;;2056319;28;20187;-65
2021/04/06 00:09:50;;;;;;;9.63;4.28;;;-3.10;99.90;;;;;;2056053;28;20181;-65
2021/04/06 00:10:58;;;;;;;9.85;3.90;;;-3.20;99.90;;;;;;2063574;28;20249;-65
2021/04/06 00:12:04;;;;;;;7.82;3.47;;;-3.20;99.90;;;;;;2064003;28;20225;-65
2021/04/06 00:13:06;;;;;;;7.72;3.45;;;-3.20;99.90;;;;;;2072754;28;20318;-65
2021/04/06 00:14:07;;;;;;;6.13;3.92;;;-3.20;99.90;;;;;;2071865;28;20220;-64
2021/04/06 00:15:10;;;;;;;7.82;3.83;;;-3.20;99.90;;;;;;2072100;28;20536;-64
2021/04/06 00:16:12;;;;;;;7.15;3.90;;;-3.30;99.90;;;;;;2063255;28;20643;-65
2021/04/06 00:17:14;;;;;;;8.23;4.10;;;-3.30;99.90;;;;;;2056101;28;20190;-65
2021/04/06 00:18:18;;;;;;;6.50;4.35;;;-3.30;99.90;;;;;;2064510;28;20182;-65
2021/04/06 00:19:22;;;;;;;11.02;4.80;;;-3.30;99.90;;;;;;2063891;28;20187;-65
2021/04/06 00:20:25;;;;;;;8.43;4.90;;;-3.30;99.90;;;;;;2056280;28;20176;-64
2021/04/06 00:21:27;;;;;;;7.97;4.50;;;-3.40;99.90;;;;;;2071502;28;20780;-65
2021/04/06 00:22:32;;;;;;;9.80;4.43;;;-3.40;99.90;;;;;;2071799;28;20177;-65
2021/04/06 00:23:33;;;;;;;10.02;4.65;;;-3.40;99.90;;;;;;2056276;28;20175;-64
2021/04/06 00:24:38;;;;;;;11.80;4.72;;;-3.40;99.90;;;;;;2063924;28;20653;-65
2021/04/06 00:25:43;;;;;;;10.63;4.53;;;-3.40;99.90;;;;;;2063731;28;20187;-64
2021/04/06 00:26:54;;;;;;;9.52;4.47;;;-3.40;99.90;;;;;;2072404;28;20208;-64
2021/04/06 00:27:55;;;;;;;8.18;4.40;;;-3.50;99.90;;;;;;2070344;28;20181;-64
2021/04/06 00:28:57;;;;;;;10.02;4.78;;;-3.50;99.90;;;;;;2055901;28;20210;-63
2021/04/06 00:30:09;;;;;;;8.95;4.70;;;-3.50;99.90;;;;;;2055792;28;20184;-65
2021/04/06 00:31:13;;;;;;;9.20;4.00;;;-3.50;99.90;;;;;;2064791;28;20190;-64
2021/04/06 00:32:16;;;;;;;6.55;5.00;;;-3.50;99.90;;;;;;2070362;28;20220;-64
2021/04/06 00:33:33;;;;;;;10.48;4.60;;;-3.50;99.90;;;;;;2064538;28;20206;-64
2021/04/06 00:34:36;;;;;;;6.40;4.22;;;-3.60;99.90;;;;;;2064613;28;20175;-64
2021/04/06 00:35:38;;;;;;;7.32;4.03;;;-3.60;99.90;;;;;;2063811;28;20175;-63
2021/04/06 00:36:39;;;;;;;8.88;3.88;;;-3.60;99.90;;;;;;2098366;23;20778;-64
2021/04/06 00:38:00;;;;;;;7.55;4.00;;;-3.60;99.90;;;;;;2086644;28;20291;-64
2021/04/06 00:39:01;;;;;;;8.15;4.25;;;-3.60;99.90;;;;;;2085798;28;20238;-64
2021/04/06 00:40:08;;;;;;;13.30;4.23;;;-3.60;99.90;;;;;;2080354;28;20231;-64
2021/04/06 00:41:14;;;;;;;7.93;4.18;;;-3.70;99.90;;;;;;2073502;28;20432;-64
2021/04/06 00:42:19;;;;;;;8.32;3.97;;;-3.60;99.90;;;;;;2082146;28;20256;-64
2021/04/06 00:43:20;;;;;;;8.27;3.97;;;-3.60;99.90;;;;;;2082365;28;20350;-64
2021/04/06 00:44:22;;;;;;;8.13;4.43;;;-3.60;99.90;;;;;;2081970;28;20205;-64
2021/04/06 00:45:23;;;;;;;7.63;4.47;;;-3.60;99.90;;;;;;2073765;28;20191;-64
2021/04/06 00:46:28;;;;;;;5.55;3.83;;;-3.60;99.90;;;;;;2081718;28;20188;-64
2021/04/06 00:47:30;;;;;;;6.68;3.70;;;-3.60;99.90;;;;;;2073752;28;20166;-64
2021/04/06 00:48:32;;;;;;;9.48;4.38;;;-3.70;99.90;;;;;;2073589;28;20273;-64
2021/04/06 00:49:34;;;;;;;6.63;4.32;;;-3.70;99.90;;;;;;2074229;28;20182;-64
2021/04/06 00:50:37;;;;;;;10.40;4.20;;;-3.70;99.90;;;;;;2073738;28;20273;-64
2021/04/06 00:51:40;;;;;;;8.35;4.57;;;-3.70;99.90;;;;;;2072954;28;20193;-64
2021/04/06 00:52:45;;;;;;;8.00;4.00;;;-3.70;99.90;;;;;;2074454;28;20201;-65
2021/04/06 00:53:52;;;;;;;6.97;3.83;;;-3.70;99.90;;;;;;2074093;28;20210;-64
2021/04/06 00:54:56;;;;;;;7.70;4.05;;;-3.70;99.90;;;;;;2074263;28;20185;-64
2021/04/06 00:55:58;;;;;;;11.90;3.83;;;-3.70;99.90;;;;;;2073489;28;20706;-64
2021/04/06 00:56:59;;;;;;;11.73;4.68;;;-3.70;99.90;;;;;;2065866;28;20229;-64
2021/04/06 00:58:00;;;;;;;7.00;4.20;;;-3.80;99.90;;;;;;2065524;28;20200;-64
2021/04/06 00:59:07;;;;;;;10.38;5.22;;;-3.80;99.90;;;;;;2065341;28;20182;-64
2021/04/06 01:00:13;;;;;;;8.45;4.13;;;-3.80;99.90;;;;;;2073468;28;20588;-64
2021/04/06 01:01:14;;;;;;;7.15;3.60;;;-3.80;99.90;;;;;;2073559;28;20169;-65
2021/04/06 01:02:18;;;;;;;12.13;4.03;;;-3.80;99.90;;;;;;2073883;28;20174;-64
2021/04/06 01:03:19;;;;;;;6.40;3.60;;;-3.80;99.90;;;;;;2073527;28;20193;-64
2021/04/06 01:04:23;;;;;;;5.67;3.50;;;-3.90;99.90;;;;;;2073259;28;20744;-64
2021/04/06 01:05:25;;;;;;;7.68;3.55;;;-3.90;99.90;;;;;;2073213;28;20263;-64
2021/04/06 01:06:26;;;;;;;5.35;3.83;;;-3.90;99.90;;;;;;2073239;28;20189;-65
2021/04/06 01:07:27;;;;;;;9.95;3.35;;;-3.90;99.90;;;;;;2074071;28;20205;-64
2021/04/06 01:08:33;;;;;;;7.97;4.07;;;-3.90;99.90;;;;;;2073537;28;20471;-64
2021/04/06 01:09:50;;;;;;;8.43;3.47;;;-3.90;99.90;;;;;;2073504;28;20181;-64
2021/04/06 01:10:51;;;;;;;8.18;3.50;;;-4.00;99.90;;;;;;2073437;28;20193;-64
2021/04/06 01:11:52;;;;;;;7.47;3.60;;;-4.00;99.90;;;;;;2073442;28;20268;-64
2021/04/06 01:12:55;;;;;;;11.53;3.53;;;-4.00;99.90;;;;;;2065320;28;20197;-64
2021/04/06 01:14:00;;;;;;;6.82;3.03;;;-4.00;99.90;;;;;;2073506;28;20235;-64
2021/04/06 01:15:01;;;;;;;5.82;3.75;;;-4.00;99.90;;;;;;2081324;28;20257;-64
2021/04/06 01:16:03;;;;;;;8.30;3.43;;;-4.00;99.90;;;;;;2074028;28;20219;-64
2021/04/06 01:17:10;;;;;;;6.90;3.08;;;-4.10;99.90;;;;;;2073349;28;20588;-64
2021/04/06 01:18:11;;;;;;;7.20;3.53;;;-4.10;99.90;;;;;;2073547;28;20175;-64
2021/04/06 01:19:13;;;;;;;4.93;2.88;;;-4.10;99.90;;;;;;2073909;28;20216;-64
2021/04/06 01:20:18;;;;;;;3.83;2.60;;;-4.10;99.90;;;;;;2073202;28;20228;-64
2021/04/06 01:21:18;;;;;;;5.68;3.20;;;-4.10;99.90;;;;;;2072828;28;20653;-64
2021/04/06 01:22:20;;;;;;;6.10;2.73;;;-4.20;99.90;;;;;;2074045;28;20186;-64
2021/04/06 01:23:21;;;;;;;6.07;3.10;;;-4.20;99.90;;;;;;2073961;28;20182;-64
2021/04/06 01:24:26;;;;;;;6.50;2.90;;;-4.20;99.90;;;;;;2073640;28;20184;-64
2021/04/06 01:25:33;;;;;;;6.75;2.90;;;-4.20;99.90;;;;;;2073018;28;20239;-64
2021/04/06 01:26:34;;;;;;;7.25;3.13;;;-4.20;99.90;;;;;;2073145;28;20173;-64
2021/04/06 01:27:34;;;;;;;4.00;2.60;;;-4.30;99.90;;;;;;2070648;28;20183;-64
2021/04/06 01:28:35;;;;;;;7.90;3.00;;;-4.30;99.90;;;;;;2073707;28;20174;-64
2021/04/06 01:29:37;;;;;;;6.93;2.63;;;-4.30;99.90;;;;;;2073706;28;20393;-64
2021/04/06 01:30:50;;;;;;;6.63;2.80;;;-4.30;99.90;;;;;;2073511;28;20714;-64
2021/04/06 01:31:53;;;;;;;6.40;2.80;;;-4.30;99.90;;;;;;2073805;28;20239;-64
2021/04/06 01:32:54;;;;;;;4.43;2.40;;;-4.30;99.90;;;;;;2073226;28;20187;-64
2021/04/06 01:33:55;;;;;;;5.07;2.90;;;-4.30;99.90;;;;;;2072929;28;20241;-64
2021/04/06 01:34:56;;;;;;;5.17;2.53;;;-4.40;99.90;;;;;;2089251;28;20214;-64
2021/04/06 01:36:01;;;;;;;6.00;2.90;;;-4.40;99.90;;;;;;2080981;28;20263;-64
2021/04/06 01:37:02;;;;;;;5.57;2.20;;;-4.40;99.90;;;;;;2072940;28;20655;-64
2021/04/06 01:38:02;;;;;;;4.93;2.23;;;-4.50;99.90;;;;;;2073852;28;20189;-65
2021/04/06 01:39:05;;;;;;;4.73;2.10;;;-4.50;99.90;;;;;;2073888;28;20181;-64
2021/04/06 01:40:07;;;;;;;3.42;2.60;;;-4.50;99.90;;;;;;2073196;28;20184;-64
2021/04/06 01:41:08;;;;;;;3.45;2.15;;;-4.50;99.90;;;;;;2064412;28;20724;-64
2021/04/06 01:42:09;;;;;;;4.80;2.60;;;-4.50;99.90;;;;;;2073178;28;20629;-64
2021/04/06 01:43:13;;;;;;;7.85;2.50;;;-4.50;99.90;;;;;;2073840;28;20185;-64
2021/04/06 01:44:15;;;;;;;6.63;2.30;;;-4.60;99.90;;;;;;2073926;28;20221;-64
2021/04/06 01:45:17;;;;;;;6.50;2.42;;;-4.60;99.90;;;;;;2073826;28;20244;-64
2021/04/06 01:46:30;;;;;;;9.43;2.65;;;-4.60;99.90;;;;;;2073714;28;20184;-64
2021/04/06 01:47:30;;;;;;;5.10;2.40;;;-4.60;99.90;;;;;;2073046;28;20217;-64
2021/04/06 01:48:33;;;;;;;5.50;2.10;;;-4.50;99.90;;;;;;2074557;28;20181;-64
2021/04/06 01:49:34;;;;;;;3.50;1.88;;;-4.60;99.90;;;;;;2073622;28;20226;-64
2021/04/06 01:50:35;;;;;;;5.25;2.42;;;-4.60;99.90;;;;;;2073210;28;20264;-64
2021/04/06 01:51:38;;;;;;;7.53;2.60;;;-4.60;99.90;;;;;;2072486;28;20182;-64
2021/04/06 01:52:39;;;;;;;5.07;2.70;;;-4.60;99.90;;;;;;2072275;28;20184;-64
2021/04/06 01:53:42;;;;;;;2.85;2.10;;;-4.60;99.90;;;;;;2073126;28;20198;-64
2021/04/06 01:54:44;;;;;;;6.07;2.38;;;-4.60;99.90;;;;;;2081077;28;20637;-64
2021/04/06 01:55:54;;;;;;;4.68;2.15;;;-4.70;99.90;;;;;;2073198;28;20195;-64
2021/04/06 01:57:04;;;;;;;4.82;2.13;;;-4.70;99.90;;;;;;2073405;28;20204;-64
2021/04/06 01:58:06;;;;;;;7.68;2.47;;;-4.80;99.90;;;;;;2072827;28;20644;-64
2021/04/06 01:59:13;;;;;;;6.70;2.50;;;-4.80;99.90;;;;;;2073206;28;20177;-65
2021/04/06 02:00:32;;;;;;;4.70;2.58;;;-4.80;99.90;;;;;;2073363;28;20611;-64
2021/04/06 02:01:34;;;;;;;4.28;2.15;;;-4.80;99.90;;;;;;2080568;28;20184;-65
2021/04/06 02:02:37;;;;;;;4.45;1.90;;;-4.80;99.90;;;;;;2080687;28;20179;-64
2021/04/06 02:03:53;;;;;;;5.15;2.30;;;-4.80;99.90;;;;;;2073105;28;20177;-64
2021/04/06 02:04:56;;;;;;;6.70;2.25;;;-4.80;99.90;;;;;;2075197;28;20274;-65
2021/04/06 02:05:58;;;;;;;5.32;2.13;;;-4.80;99.90;;;;;;2079685;28;20263;-64
2021/04/06 02:07:00;;;;;;;4.03;2.03;;;-4.80;99.90;;;;;;2073389;28;20684;-65
2021/04/06 02:08:10;;;;;;;2.85;2.05;;;-4.80;99.90;;;;;;2073648;28;20695;-64
2021/04/06 02:09:12;;;;;;;3.97;1.70;;;-4.80;99.90;;;;;;2073311;28;20184;-65
2021/04/06 02:10:13;;;;;;;2.83;1.85;;;-4.80;99.90;;;;;;2073561;28;20312;-64
2021/04/06 02:11:22;;;;;;;3.05;1.70;;;-4.80;99.90;;;;;;2072873;28;20182;-65
2021/04/06 02:12:23;;;;;;;3.17;1.77;;;-4.80;99.90;;;;;;2073369;28;20196;-65
2021/04/06 02:13:24;;;;;;;4.10;1.70;;;-4.80;99.90;;;;;;2072737;28;20700;-64
2021/04/06 02:14:25;;;;;;;2.90;1.70;;;-4.80;99.90;;;;;;2072814;28;20209;-64
2021/04/06 02:15:26;;;;;;;3.22;1.73;;;-4.80;99.90;;;;;;2073493;28;20231;-64
2021/04/06 02:16:27;;;;;;;4.70;2.23;;;-4.80;99.90;;;;;;2072772;28;20243;-64
2021/04/06 02:17:27;;;;;;;3.43;1.80;;;-4.80;99.90;;;;;;2072712;28;20197;-65
2021/04/06 02:18:31;;;;;;;2.97;1.80;;;-4.80;99.90;;;;;;2073464;28;20177;-64
2021/04/06 02:19:41;;;;;;;2.60;1.95;;;-4.80;99.90;;;;;;2073464;28;20181;-64
2021/04/06 02:20:55;;;;;;;2.28;1.60;;;-4.80;99.90;;;;;;2073090;28;20188;-64
2021/04/06 02:22:09;;;;;;;4.70;2.00;;;-4.80;99.90;;;;;;2073303;28;20168;-64
2021/04/06 02:23:10;;;;;;;5.80;2.00;;;-4.80;99.90;;;;;;2072845;28;20195;-65
2021/04/06 02:24:27;;;;;;;4.70;2.10;;;-4.80;99.90;;;;;;2072625;28;20704;-65
2021/04/06 02:25:29;;;;;;;4.97;3.20;;;-4.80;99.90;;;;;;2073270;28;20180;-65
2021/04/06 02:26:30;;;;;;;4.25;2.20;;;-4.80;99.90;;;;;;2073238;28;20180;-65
2021/04/06 02:27:34;;;;;;;5.20;2.17;;;-4.90;99.90;;;;;;2072590;28;20259;-64
2021/04/06 02:28:35;;;;;;;4.45;2.13;;;-4.80;99.90;;;;;;2072645;28;20196;-65
2021/04/06 02:29:42;;;;;;;5.80;1.80;;;-4.80;99.90;;;;;;2072963;28;20621;-65
2021/04/06 02:30:59;;;;;;;3.30;1.98;;;-4.80;99.90;;;;;;2073184;28;20169;-65
2021/04/06 02:32:00;;;;;;;6.68;1.88;;;-4.80;99.90;;;;;;2073348;28;20193;-65
2021/04/06 02:33:02;;;;;;;6.37;2.10;;;-4.80;99.90;;;;;;2072817;28;20177;-65
2021/04/06 02:34:02;;;;;;;2.47;1.98;;;-4.80;99.90;;;;;;2068798;28;20228;-65
2021/04/06 02:35:07;;;;;;;6.20;2.27;;;-4.80;99.90;;;;;;2073033;28;20665;-64
2021/04/06 02:36:09;;;;;;;4.05;2.00;;;-4.80;99.90;;;;;;2073159;28;20181;-65
2021/04/06 02:37:28;;;;;;;6.43;2.17;;;-4.80;99.90;;;;;;2073099;28;20220;-64
2021/04/06 02:38:49;;;;;;;4.43;1.75;;;-4.80;99.90;;;;;;2073198;28;20275;-64
2021/04/06 02:39:53;;;;;;;3.22;2.00;;;-4.80;99.90;;;;;;2073178;28;20176;-64
2021/04/06 02:41:07;;;;;;;4.75;1.80;;;-4.80;99.90;;;;;;2072372;28;20648;-65
2021/04/06 02:42:21;;;;;;;3.80;1.95;;;-4.90;99.90;;;;;;2073247;28;20189;-65
2021/04/06 02:43:21;;;;;;;5.10;2.85;;;-4.90;99.90;;;;;;2073267;28;20582;-65
2021/04/06 02:44:22;;;;;;;4.17;1.97;;;-4.90;99.90;;;;;;2073064;28;20199;-65
2021/04/06 02:45:30;;;;;;;4.53;2.03;;;-4.90;99.90;;;;;;2072681;28;20215;-65
2021/04/06 02:46:32;;;;;;;4.72;1.80;;;-4.90;99.90;;;;;;2072381;28;20192;-64
2021/04/06 02:47:35;;;;;;;4.97;1.92;;;-4.90;99.90;;;;;;2073203;28;20216;-65
2021/04/06 02:48:36;;;;;;;7.30;2.00;;;-4.90;99.90;;;;;;2072924;28;20215;-64
2021/04/06 02:49:36;;;;;;;2.70;1.80;;;-4.90;99.90;;;;;;2073306;28;20548;-65
2021/04/06 02:50:40;;;;;;;4.70;1.60;;;-4.90;99.90;;;;;;2072460;28;20253;-64
2021/04/06 02:51:40;;;;;;;3.92;2.20;;;-4.90;99.90;;;;;;2071969;28;20192;-65
2021/04/06 02:52:42;;;;;;;2.93;1.60;;;-5.00;99.90;;;;;;2073090;28;20189;-65
2021/04/06 02:53:46;;;;;;;4.93;2.08;;;-5.00;99.90;;;;;;2072577;28;20189;-64
2021/04/06 02:54:47;;;;;;;3.10;1.90;;;-5.00;99.90;;;;;;2072444;28;20188;-65
2021/04/06 02:55:48;;;;;;;4.03;1.80;;;-4.90;99.90;;;;;;2072537;28;20180;-64
2021/04/06 02:56:49;;;;;;;4.97;2.07;;;-4.90;99.90;;;;;;2064152;28;20668;-65
2021/04/06 02:57:53;;;;;;;5.70;1.83;;;-4.90;99.90;;;;;;2064550;28;20184;-64
2021/04/06 02:58:53;;;;;;;4.53;1.70;;;-4.90;99.90;;;;;;2072398;28;20184;-65
2021/04/06 02:59:54;;;;;;;5.10;1.90;;;-4.90;99.90;;;;;;2072605;28;20693;-65
2021/04/06 03:01:16;;;;;;;4.33;2.10;;;-4.90;99.90;;;;;;2071898;28;20174;-65
2021/04/06 03:02:17;;;;;;;2.85;2.05;;;-4.90;99.90;;;;;;2073054;28;20201;-64
2021/04/06 03:03:24;;;;;;;5.20;2.00;;;-4.90;99.90;;;;;;2072208;28;20188;-65
2021/04/06 03:04:27;;;;;;;4.32;1.67;;;-4.90;99.90;;;;;;2072489;28;20167;-64
2021/04/06 03:05:31;;;;;;;7.75;1.60;;;-4.90;99.90;;;;;;2073280;28;20186;-65
2021/04/06 03:06:33;;;;;;;7.72;2.20;;;-4.90;99.90;;;;;;2073076;28;20203;-65
2021/04/06 03:07:45;;;;;;;6.05;1.80;;;-5.00;99.90;;;;;;2072483;28;20249;-64
2021/04/06 03:08:46;;;;;;;6.25;2.17;;;-4.90;99.90;;;;;;2065838;28;20659;-65
2021/04/06 03:09:53;;;;;;;4.13;2.00;;;-4.90;99.90;;;;;;2072391;28;20228;-65
2021/04/06 03:10:56;;;;;;;6.78;1.90;;;-5.00;99.90;;;;;;2072659;28;20216;-65
2021/04/06 03:11:58;;;;;;;2.47;2.10;;;-5.00;99.90;;;;;;2073392;28;20181;-65
2021/04/06 03:13:11;;;;;;;4.03;2.22;;;-5.00;99.90;;;;;;2073007;28;20191;-65
2021/04/06 03:14:12;;;;;;;4.15;2.28;;;-5.00;99.90;;;;;;2072254;28;20259;-65
2021/04/06 03:15:23;;;;;;;3.22;2.08;;;-5.00;99.90;;;;;;2072529;28;20190;-64
2021/04/06 03:16:23;;;;;;;5.72;2.03;;;-5.00;99.90;;;;;;2072489;28;20193;-65
2021/04/06 03:17:25;;;;;;;7.70;2.10;;;-5.00;99.90;;;;;;2072608;28;20217;-65
2021/04/06 03:18:39;;;;;;;6.15;2.47;;;-5.00;99.90;;;;;;2072285;28;20530;-65
2021/04/06 03:19:40;;;;;;;5.30;2.20;;;-5.00;99.90;;;;;;2072902;28;20180;-64
2021/04/06 03:20:43;;;;;;;6.67;2.37;;;-5.00;99.90;;;;;;2073263;28;20184;-64
2021/04/06 03:21:46;;;;;;;5.90;2.38;;;-5.00;99.90;;;;;;2072757;28;20183;-65
2021/04/06 03:22:48;;;;;;;6.88;2.10;;;-5.00;99.90;;;;;;2073289;28;20186;-64
2021/04/06 03:23:49;;;;;;;3.17;2.10;;;-5.00;99.90;;;;;;2073062;28;20243;-64
2021/04/06 03:24:50;;;;;;;6.93;2.20;;;-5.00;99.90;;;;;;2072646;28;20209;-65
2021/04/06 03:25:51;;;;;;;4.18;2.25;;;-5.00;99.90;;;;;;2073051;28;20189;-65
2021/04/06 03:26:51;;;;;;;5.97;2.20;;;-5.10;99.90;;;;;;2072523;28;20224;-64
2021/04/06 03:27:52;;;;;;;9.40;1.90;;;-5.00;99.90;;;;;;2072657;28;20190;-64
2021/04/06 03:28:58;;;;;;;3.83;2.00;;;-5.00;99.90;;;;;;2073287;28;20593;-64
2021/04/06 03:30:01;;;;;;;4.60;1.98;;;-5.00;99.90;;;;;;2072927;28;20224;-65
2021/04/06 03:31:13;;;;;;;3.70;2.03;;;-5.10;99.90;;;;;;2072245;28;20193;-65
2021/04/06 03:32:13;;;;;;;6.03;2.88;;;-5.00;99.90;;;;;;2073016;28;20183;-65
2021/04/06 03:33:15;;;;;;;7.83;2.23;;;-5.00;99.90;;;;;;2070002;28;20574;-65
2021/04/06 03:34:15;;;;;;;4.07;2.33;;;-5.00;99.90;;;;;;2064825;28;20185;-65
2021/04/06 03:35:22;;;;;;;3.90;2.23;;;-5.00;99.90;;;;;;2064859;28;20191;-65
2021/04/06 03:36:25;;;;;;;4.47;2.15;;;-5.10;99.90;;;;;;2064752;28;20166;-65
2021/04/06 03:37:28;;;;;;;4.95;2.00;;;-5.00;99.90;;;;;;2064043;28;20222;-65
2021/04/06 03:38:29;;;;;;;5.68;2.25;;;-5.10;99.90;;;;;;2064338;28;20196;-64
2021/04/06 03:39:33;;;;;;;4.73;2.00;;;-5.00;99.90;;;;;;2065240;28;20284;-64
2021/04/06 03:40:36;;;;;;;3.55;1.90;;;-5.10;99.90;;;;;;2064880;28;20192;-64
2021/04/06 03:41:37;;;;;;;4.43;2.05;;;-5.10;99.90;;;;;;2064580;28;20346;-65
2021/04/06 03:42:38;;;;;;;7.25;2.60;;;-5.10;99.90;;;;;;2065082;28;20196;-65
2021/04/06 03:43:40;;;;;;;3.17;2.00;;;-5.10;99.90;;;;;;2064403;28;20242;-65
2021/04/06 03:44:41;;;;;;;5.10;2.10;;;-5.10;99.90;;;;;;2064213;28;20234;-65
2021/04/06 03:46:02;;;;;;;3.30;2.00;;;-5.20;99.90;;;;;;2064816;28;20193;-65
2021/04/06 03:47:04;;;;;;;5.40;2.28;;;-5.10;99.90;;;;;;2064196;28;20283;-65
2021/04/06 03:48:06;;;;;;;5.65;2.53;;;-5.20;99.90;;;;;;2064199;28;20196;-65
2021/04/06 03:49:18;;;;;;;4.97;2.45;;;-5.20;99.90;;;;;;2064528;28;20183;-65
2021/04/06 03:50:41;;;;;;;5.15;2.63;;;-5.20;99.90;;;;;;2064429;28;20514;-65
2021/04/06 03:52:00;;;;;;;7.55;2.75;;;-5.20;99.90;;;;;;2063899;28;20269;-65
2021/04/06 03:53:09;;;;;;;5.40;2.35;;;-5.20;99.90;;;;;;2064303;28;20270;-65
2021/04/06 03:54:09;;;;;;;4.15;2.17;;;-5.20;99.90;;;;;;2064532;28;20248;-64
2021/04/06 03:55:11;;;;;;;6.30;1.90;;;-5.20;99.90;;;;;;2064445;28;20221;-65
2021/04/06 03:56:12;;;;;;;5.88;2.30;;;-5.20;99.90;;;;;;2064375;28;20197;-64
2021/04/06 03:58:43;;;;;;;5.68;2.53;;;-5.20;99.90;;;;;;2064444;28;20178;-65
2021/04/06 03:59:43;;;;;;;7.72;2.05;;;-5.30;99.90;;;;;;2064364;28;20561;-65
2021/04/06 04:00:44;;;;;;;5.90;2.47;;;-5.30;99.90;;;;;;2064197;28;20211;-65
2021/04/06 04:01:45;;;;;;;5.13;2.20;;;-5.30;99.90;;;;;;2063730;28;20651;-65
2021/04/06 04:02:45;;;;;;;4.13;2.60;;;-5.30;99.90;;;;;;2064289;28;20193;-64
2021/04/06 04:03:46;;;;;;;6.17;2.80;;;-5.30;99.90;;;;;;2063646;28;20189;-65
2021/04/06 04:04:47;;;;;;;15.47;7.00;;;-5.30;99.90;;;;;;2063742;28;20181;-64
2021/04/06 04:05:50;;;;;;;10.23;3.43;;;-5.30;99.90;;;;;;2064570;28;20185;-65
2021/04/06 04:07:01;;;;;;;7.68;3.00;;;-5.40;99.90;;;;;;2063582;28;20206;-64
2021/04/06 04:08:02;;;;;;;5.80;2.80;;;-5.40;99.90;;;;;;2063915;28;20254;-65
2021/04/06 04:09:03;;;;;;;4.65;2.67;;;-5.40;99.90;;;;;;2064377;28;20182;-65
2021/04/06 04:10:09;;;;;;;6.18;2.50;;;-5.40;99.90;;;;;;2064377;28;20184;-64
2021/04/06 04:11:09;;;;;;;4.57;2.53;;;-5.40;99.90;;;;;;2063808;28;20951;-65
2021/04/06 04:12:10;;;;;;;4.43;2.00;;;-5.50;99.90;;;;;;2064306;28;20186;-65
2021/04/06 04:13:11;;;;;;;5.57;2.17;;;-5.50;99.90;;;;;;2065274;28;20182;-65
2021/04/06 04:14:12;;;;;;;4.03;2.00;;;-5.50;99.90;;;;;;2065272;28;20266;-64
2021/04/06 04:15:13;;;;;;;4.30;2.07;;;-5.40;99.90;;;;;;2065427;28;20197;-65
2021/04/06 04:16:15;;;;;;;4.18;2.10;;;-5.40;99.90;;;;;;2066735;28;20610;-65
2021/04/06 04:17:16;;;;;;;9.65;2.35;;;-5.40;99.90;;;;;;2066817;28;20291;-65
2021/04/06 04:18:16;;;;;;;2.43;1.73;;;-5.40;99.90;;;;;;2066209;28;20228;-65
2021/04/06 04:19:17;;;;;;;3.40;2.10;;;-5.30;99.90;;;;;;2066591;28;20231;-65
2021/04/06 04:20:21;;;;;;;5.07;2.40;;;-5.30;99.90;;;;;;2074373;28;20427;-65
2021/04/06 04:21:21;;;;;;;5.60;2.70;;;-5.30;99.90;;;;;;2073793;28;20269;-64
2021/04/06 04:22:22;;;;;;;3.30;2.30;;;-5.20;99.90;;;;;;2074342;28;20189;-64
2021/04/06 04:23:23;;;;;;;4.53;2.15;;;-5.30;99.90;;;;;;2066186;28;20185;-65
2021/04/06 04:24:24;;;;;;;6.10;3.40;;;-5.20;99.90;;;;;;2066257;28;20266;-64
2021/04/06 04:25:24;;;;;;;6.67;3.20;;;-5.20;99.90;;;;;;2066851;28;20518;-64
2021/04/06 04:26:25;;;;;;;3.70;2.30;;;-5.20;99.90;;;;;;2066669;28;20655;-65
2021/04/06 04:27:26;;;;;;;6.27;2.60;;;-5.20;99.90;;;;;;2066876;28;20204;-64
2021/04/06 04:28:26;;;;;;;7.63;2.03;;;-5.20;99.90;;;;;;2066589;28;20235;-64
2021/04/06 04:29:27;;;;;;;4.73;2.40;;;-5.20;99.90;;;;;;2066850;28;20174;-65
2021/04/06 04:30:47;;;;;;;4.33;2.00;;;-5.10;99.90;;;;;;2066692;28;20178;-64
2021/04/06 04:31:50;;;;;;;3.38;2.10;;;-5.10;99.90;;;;;;2066544;28;20166;-65
2021/04/06 04:32:50;;;;;;;4.43;1.80;;;-5.00;99.90;;;;;;2066712;28;20193;-64
2021/04/06 04:33:51;;;;;;;5.50;2.00;;;-5.00;99.90;;;;;;2074060;28;20218;-64
2021/04/06 04:34:52;;;;;;;5.37;2.00;;;-5.00;99.90;;;;;;2074039;28;20667;-64
2021/04/06 04:35:52;;;;;;;3.37;2.17;;;-5.00;99.90;;;;;;2066961;28;20190;-65
2021/04/06 04:36:53;;;;;;;7.07;2.40;;;-4.90;99.90;;;;;;2065842;28;20497;-65
2021/04/06 04:37:54;;;;;;;7.10;2.00;;;-4.90;99.90;;;;;;2066340;28;20182;-66
2021/04/06 04:38:54;;;;;;;7.40;2.27;;;-4.90;99.90;;;;;;2066807;28;20193;-65
2021/04/06 04:39:55;;;;;;;5.00;2.27;;;-4.80;99.90;;;;;;2066840;28;20700;-66
2021/04/06 04:40:56;;;;;;;8.10;2.20;;;-4.80;99.90;;;;;;2065918;28;20704;-66
2021/04/06 04:41:57;;;;;;;6.93;2.20;;;-4.70;99.90;;;;;;2074110;28;20192;-65
2021/04/06 04:42:58;;;;;;;7.40;2.10;;;-4.70;99.90;;;;;;2074278;28;20181;-66
2021/04/06 04:44:15;;;;;;;5.80;2.17;;;-4.60;99.90;;;;;;2066572;28;20205;-65
2021/04/06 04:45:16;;;;;;;5.00;2.85;;;-4.60;99.90;;;;;;2066649;28;20158;-64
2021/04/06 04:46:16;;;;;;;5.18;2.20;;;-4.60;99.90;;;;;;2066769;28;20188;-64
2021/04/06 04:47:17;;;;;;;5.40;2.53;;;-4.60;99.90;;;;;;2066373;28;20677;-64
2021/04/06 04:48:18;;;;;;;6.30;2.00;;;-4.60;99.90;;;;;;2066737;28;20312;-64
2021/04/06 04:49:18;;;;;;;4.37;2.47;;;-4.60;99.90;;;;;;2066469;28;20269;-65
2021/04/06 04:50:21;;;;;;;5.90;2.33;;;-4.60;99.90;;;;;;2066755;28;20170;-64
2021/04/06 04:51:22;;;;;;;7.32;3.65;;;-4.60;99.90;;;;;;2065939;28;20229;-64
2021/04/06 04:52:22;;;;;;;4.67;1.80;;;-4.60;99.90;;;;;;2066696;28;20692;-64
2021/04/06 04:53:23;;;;;;;6.60;2.10;;;-4.50;99.90;;;;;;2066649;28;20177;-64
2021/04/06 04:54:24;;;;;;;5.83;2.20;;;-4.50;99.90;;;;;;2066560;28;20220;-64
2021/04/06 04:55:25;;;;;;;5.40;2.40;;;-4.40;99.90;;;;;;2066412;28;20200;-64
2021/04/06 04:56:25;;;;;;;4.90;2.17;;;-4.40;99.90;;;;;;2066489;28;20421;-64
2021/04/06 04:57:26;;;;;;;7.40;2.57;;;-4.30;99.90;;;;;;2066619;28;20197;-64
2021/04/06 04:58:27;;;;;;;5.83;2.63;;;-4.30;99.90;;;;;;2066507;28;20709;-64
2021/04/06 04:59:28;;;;;;;8.30;2.63;;;-4.30;99.90;;;;;;2066686;28;20244;-64
2021/04/06 05:00:28;;;;;;;5.73;2.70;;;-4.30;99.90;;;;;;2066583;28;20558;-65
2021/04/06 05:01:33;;;;;;;4.57;2.47;;;-4.20;99.90;;;;;;2065891;28;20212;-64
2021/04/06 05:02:34;;;;;;;7.72;2.40;;;-4.20;99.90;;;;;;2074238;28;20667;-64
2021/04/06 05:03:34;;;;;;;6.97;2.70;;;-4.20;99.90;;;;;;2074040;28;20199;-65
2021/04/06 05:04:35;;;;;;;5.33;2.43;;;-4.20;99.90;;;;;;2074047;28;20177;-64
2021/04/06 05:05:36;;;;;;;6.83;2.30;;;-4.20;99.90;;;;;;2066344;28;20178;-64
2021/04/06 05:06:37;;;;;;;5.50;2.20;;;-4.20;99.90;;;;;;2066202;28;20212;-64
2021/04/06 05:07:41;;;;;;;5.00;2.17;;;-4.20;99.90;;;;;;2066361;28;20688;-64
2021/04/06 05:08:42;;;;;;;5.15;2.17;;;-4.20;99.90;;;;;;2066425;28;20927;-64
2021/04/06 05:09:43;;;;;;;5.80;2.58;;;-4.20;99.90;;;;;;2066586;28;20653;-64
2021/04/06 05:10:44;;;;;;;5.90;2.70;;;-4.20;99.90;;;;;;2066253;28;20218;-64
2021/04/06 05:11:44;;;;;;;5.37;2.43;;;-4.20;99.90;;;;;;2066150;28;20193;-64
2021/04/06 05:12:47;;;;;;;4.63;2.63;;;-4.10;99.90;;;;;;2066015;28;20178;-65
2021/04/06 05:13:52;;;;;;;8.05;2.50;;;-4.10;99.90;;;;;;2066222;28;20182;-63
2021/04/06 05:14:55;;;;;;;4.45;2.05;;;-4.10;99.90;;;;;;2066863;28;20178;-65
2021/04/06 05:15:56;;;;;;;5.38;2.42;;;-4.00;99.90;;;;;;2066729;28;20178;-64
2021/04/06 05:16:56;;;;;;;6.37;2.30;;;-4.00;99.90;;;;;;2066296;28;20265;-65
2021/04/06 05:17:57;;;;;;;4.57;2.23;;;-3.90;99.90;;;;;;2066493;28;20236;-65
2021/04/06 05:18:58;;;;;;;4.87;2.50;;;-3.90;99.90;;;;;;2066562;28;20286;-64
2021/04/06 05:19:59;;;;;;;6.83;2.43;;;-3.90;99.90;;;;;;2066579;28;20182;-65
2021/04/06 05:20:59;;;;;;;4.45;2.33;;;-3.80;99.90;;;;;;2065790;28;20195;-65
2021/04/06 05:22:00;;;;;;;4.07;2.07;;;-3.80;99.90;;;;;;2066580;28;20217;-65
2021/04/06 05:23:01;;;;;;;9.50;2.83;;;-3.80;99.90;;;;;;2066041;28;20261;-64
2021/04/06 05:24:02;;;;;;;4.57;2.67;;;-3.80;99.90;;;;;;2066373;28;20406;-65
2021/04/06 05:25:04;;;;;;;4.77;2.20;;;-3.70;99.90;;;;;;2066248;28;20208;-65
2021/04/06 05:26:06;;;;;;;6.90;2.63;;;-3.70;99.90;;;;;;2065988;28;20198;-65
2021/04/06 05:27:06;;;;;;;5.30;2.45;;;-3.60;99.90;;;;;;2064793;28;20759;-64
2021/04/06 05:28:07;;;;;;;5.80;2.30;;;-3.50;99.90;;;;;;2065751;28;20205;-65
2021/04/06 05:29:08;;;;;;;6.18;2.75;;;-3.50;99.90;;;;;;2066219;28;20189;-64
2021/04/06 05:30:10;;;;;;;6.13;2.63;;;-3.40;99.90;;;;;;2066500;28;20186;-65
2021/04/06 05:31:11;;;;;;;5.65;2.50;;;-3.40;99.90;;;;;;2068002;28;20190;-64